sensor_id;sensor_type;location;lat;lon;timestamp;P1;durP1;ratioP1;P2;durP2;ratioP2
35306;SDS011;21420;52.196;21.416;2023-08-06T00:02:02;18.00;;;16.00;;
35306;SDS011;21420;52.196;21.416;2023-08-06T00:04:29;18.30;;;15.20;;
35306;SDS011;21420;52.196;21.416;2023-08-06T00:06:56;16.60;;;14.80;;
35306;SDS011;21420;52.196;21.416;2023-08-06T00:09:23;18.40;;;14.90;;
35306;SDS011;21420;52.196;21.416;2023-08-06T00:11:49;18.30;;;14.60;;
35306;SDS011;21420;52.196;21.416;2023-08-06T00:14:16;18.90;;;15.50;;
35306;SDS011;21420;52.196;21.416;2023-08-06T00:16:44;17.60;;;15.50;;
35306;SDS011;21420;52.196;21.416;2023-08-06T00:19:11;19.80;;;15.10;;
35306;SDS011;21420;52.196;21.416;2023-08-06T00:21:38;17.70;;;14.80;;
35306;SDS011;21420;52.196;21.416;2023-08-06T00:24:05;21.30;;;15.10;;
35306;SDS011;21420;52.196;21.416;2023-08-06T00:26:32;20.10;;;15.70;;
35306;SDS011;21420;52.196;21.416;2023-08-06T00:28:58;22.10;;;15.00;;
35306;SDS011;21420;52.196;21.416;2023-08-06T00:31:25;18.20;;;14.80;;
35306;SDS011;21420;52.196;21.416;2023-08-06T00:33:52;17.60;;;15.20;;
35306;SDS011;21420;52.196;21.416;2023-08-06T00:36:19;18.20;;;15.10;;
35306;SDS011;21420;52.196;21.416;2023-08-06T00:38:45;19.20;;;15.10;;
35306;SDS011;21420;52.196;21.416;2023-08-06T00:41:12;20.00;;;14.50;;
35306;SDS011;21420;52.196;21.416;2023-08-06T00:43:40;16.60;;;14.80;;
35306;SDS011;21420;52.196;21.416;2023-08-06T00:46:06;16.60;;;13.70;;
35306;SDS011;21420;52.196;21.416;2023-08-06T00:48:33;21.10;;;14.50;;
35306;SDS011;21420;52.196;21.416;2023-08-06T00:51:00;20.30;;;14.30;;
35306;SDS011;21420;52.196;21.416;2023-08-06T00:53:28;23.90;;;15.50;;
35306;SDS011;21420;52.196;21.416;2023-08-06T00:55:54;18.50;;;14.90;;
35306;SDS011;21420;52.196;21.416;2023-08-06T00:58:21;19.00;;;15.20;;
35306;SDS011;21420;52.196;21.416;2023-08-06T01:00:48;17.10;;;14.80;;
35306;SDS011;21420;52.196;21.416;2023-08-06T01:03:15;17.10;;;14.40;;
35306;SDS011;21420;52.196;21.416;2023-08-06T01:05:42;19.30;;;13.00;;
35306;SDS011;21420;52.196;21.416;2023-08-06T01:10:51;17.20;;;14.80;;
35306;SDS011;21420;52.196;21.416;2023-08-06T01:13:45;15.80;;;12.90;;
35306;SDS011;21420;52.196;21.416;2023-08-06T01:16:18;13.50;;;10.90;;
35306;SDS011;21420;52.196;21.416;2023-08-06T01:18:47;15.20;;;13.60;;
35306;SDS011;21420;52.196;21.416;2023-08-06T01:21:16;16.10;;;13.00;;
35306;SDS011;21420;52.196;21.416;2023-08-06T01:23:43;17.60;;;14.00;;
35306;SDS011;21420;52.196;21.416;2023-08-06T01:29:15;15.70;;;12.00;;
35306;SDS011;21420;52.196;21.416;2023-08-06T01:31:50;18.80;;;12.60;;
35306;SDS011;21420;52.196;21.416;2023-08-06T01:34:21;16.10;;;13.40;;
35306;SDS011;21420;52.196;21.416;2023-08-06T01:36:50;14.40;;;12.90;;
35306;SDS011;21420;52.196;21.416;2023-08-06T01:39:17;16.30;;;13.60;;
35306;SDS011;21420;52.196;21.416;2023-08-06T01:41:50;17.00;;;14.30;;
35306;SDS011;21420;52.196;21.416;2023-08-06T01:44:17;15.60;;;14.10;;
35306;SDS011;21420;52.196;21.416;2023-08-06T01:46:44;21.10;;;15.30;;
35306;SDS011;21420;52.196;21.416;2023-08-06T01:49:11;15.70;;;13.80;;
35306;SDS011;21420;52.196;21.416;2023-08-06T01:51:38;19.20;;;14.30;;
35306;SDS011;21420;52.196;21.416;2023-08-06T01:54:04;16.70;;;14.40;;
35306;SDS011;21420;52.196;21.416;2023-08-06T01:56:31;15.00;;;13.50;;
35306;SDS011;21420;52.196;21.416;2023-08-06T01:58:58;15.60;;;13.90;;
35306;SDS011;21420;52.196;21.416;2023-08-06T02:01:24;15.50;;;13.50;;
35306;SDS011;21420;52.196;21.416;2023-08-06T02:03:51;16.60;;;14.20;;
35306;SDS011;21420;52.196;21.416;2023-08-06T02:06:17;14.70;;;13.20;;
35306;SDS011;21420;52.196;21.416;2023-08-06T02:08:44;15.00;;;13.40;;
35306;SDS011;21420;52.196;21.416;2023-08-06T02:11:11;14.80;;;13.10;;
35306;SDS011;21420;52.196;21.416;2023-08-06T02:13:37;15.40;;;13.40;;
35306;SDS011;21420;52.196;21.416;2023-08-06T02:19:16;14.90;;;12.70;;
35306;SDS011;21420;52.196;21.416;2023-08-06T02:21:43;15.10;;;13.50;;
35306;SDS011;21420;52.196;21.416;2023-08-06T02:24:09;14.90;;;13.30;;
35306;SDS011;21420;52.196;21.416;2023-08-06T02:26:36;13.90;;;12.40;;
35306;SDS011;21420;52.196;21.416;2023-08-06T02:29:03;14.30;;;12.40;;
35306;SDS011;21420;52.196;21.416;2023-08-06T02:31:29;13.40;;;12.10;;
35306;SDS011;21420;52.196;21.416;2023-08-06T02:33:57;11.50;;;10.30;;
35306;SDS011;21420;52.196;21.416;2023-08-06T02:36:24;15.70;;;12.40;;
35306;SDS011;21420;52.196;21.416;2023-08-06T02:38:57;12.40;;;11.10;;
35306;SDS011;21420;52.196;21.416;2023-08-06T02:41:24;14.30;;;12.70;;
35306;SDS011;21420;52.196;21.416;2023-08-06T02:43:52;13.50;;;12.10;;
35306;SDS011;21420;52.196;21.416;2023-08-06T02:46:19;14.20;;;12.80;;
35306;SDS011;21420;52.196;21.416;2023-08-06T02:48:46;13.80;;;11.60;;
35306;SDS011;21420;52.196;21.416;2023-08-06T02:51:12;15.20;;;13.50;;
35306;SDS011;21420;52.196;21.416;2023-08-06T02:53:39;13.20;;;11.80;;
35306;SDS011;21420;52.196;21.416;2023-08-06T02:56:07;15.00;;;13.00;;
35306;SDS011;21420;52.196;21.416;2023-08-06T02:59:06;16.30;;;13.60;;
35306;SDS011;21420;52.196;21.416;2023-08-06T03:01:49;15.00;;;13.20;;
35306;SDS011;21420;52.196;21.416;2023-08-06T03:04:21;15.00;;;13.50;;
35306;SDS011;21420;52.196;21.416;2023-08-06T03:06:51;14.10;;;11.70;;
35306;SDS011;21420;52.196;21.416;2023-08-06T03:09:19;15.20;;;13.60;;
35306;SDS011;21420;52.196;21.416;2023-08-06T03:11:46;15.70;;;14.20;;
35306;SDS011;21420;52.196;21.416;2023-08-06T03:14:13;15.40;;;13.90;;
35306;SDS011;21420;52.196;21.416;2023-08-06T03:24:10;16.50;;;14.70;;
35306;SDS011;21420;52.196;21.416;2023-08-06T03:26:38;16.40;;;14.70;;
35306;SDS011;21420;52.196;21.416;2023-08-06T03:29:05;14.70;;;13.20;;
35306;SDS011;21420;52.196;21.416;2023-08-06T03:31:32;17.50;;;15.70;;
35306;SDS011;21420;52.196;21.416;2023-08-06T03:34:00;16.90;;;15.10;;
35306;SDS011;21420;52.196;21.416;2023-08-06T03:36:28;17.70;;;15.90;;
35306;SDS011;21420;52.196;21.416;2023-08-06T03:38:55;14.40;;;12.90;;
35306;SDS011;21420;52.196;21.416;2023-08-06T03:41:21;15.20;;;13.40;;
35306;SDS011;21420;52.196;21.416;2023-08-06T03:43:49;16.10;;;14.50;;
35306;SDS011;21420;52.196;21.416;2023-08-06T03:46:20;15.80;;;14.20;;
35306;SDS011;21420;52.196;21.416;2023-08-06T03:48:47;14.80;;;12.80;;
35306;SDS011;21420;52.196;21.416;2023-08-06T03:51:14;16.70;;;14.90;;
35306;SDS011;21420;52.196;21.416;2023-08-06T03:53:42;14.50;;;13.00;;
35306;SDS011;21420;52.196;21.416;2023-08-06T03:56:09;17.30;;;15.50;;
35306;SDS011;21420;52.196;21.416;2023-08-06T03:58:35;13.20;;;12.00;;
35306;SDS011;21420;52.196;21.416;2023-08-06T04:01:02;14.40;;;12.80;;
35306;SDS011;21420;52.196;21.416;2023-08-06T04:06:08;13.30;;;11.90;;
35306;SDS011;21420;52.196;21.416;2023-08-06T04:08:35;12.90;;;11.70;;
35306;SDS011;21420;52.196;21.416;2023-08-06T04:11:02;16.90;;;15.20;;
35306;SDS011;21420;52.196;21.416;2023-08-06T04:13:30;12.40;;;11.30;;
35306;SDS011;21420;52.196;21.416;2023-08-06T04:16:00;15.30;;;13.70;;
35306;SDS011;21420;52.196;21.416;2023-08-06T04:18:29;12.20;;;11.10;;
35306;SDS011;21420;52.196;21.416;2023-08-06T04:20:56;14.20;;;12.90;;
35306;SDS011;21420;52.196;21.416;2023-08-06T04:23:24;12.50;;;11.30;;
35306;SDS011;21420;52.196;21.416;2023-08-06T04:25:56;14.30;;;12.90;;
35306;SDS011;21420;52.196;21.416;2023-08-06T04:28:25;13.20;;;12.00;;
35306;SDS011;21420;52.196;21.416;2023-08-06T04:30:52;13.80;;;12.10;;
35306;SDS011;21420;52.196;21.416;2023-08-06T04:33:20;14.10;;;12.70;;
35306;SDS011;21420;52.196;21.416;2023-08-06T04:35:47;14.20;;;12.10;;
35306;SDS011;21420;52.196;21.416;2023-08-06T04:38:21;13.90;;;12.10;;
35306;SDS011;21420;52.196;21.416;2023-08-06T04:40:49;14.50;;;13.10;;
35306;SDS011;21420;52.196;21.416;2023-08-06T04:43:16;12.70;;;11.60;;
35306;SDS011;21420;52.196;21.416;2023-08-06T04:45:46;13.40;;;12.00;;
35306;SDS011;21420;52.196;21.416;2023-08-06T04:48:14;13.20;;;11.80;;
35306;SDS011;21420;52.196;21.416;2023-08-06T04:50:44;10.00;;;9.10;;
35306;SDS011;21420;52.196;21.416;2023-08-06T04:53:12;11.40;;;10.40;;
35306;SDS011;21420;52.196;21.416;2023-08-06T04:55:39;10.10;;;9.30;;
35306;SDS011;21420;52.196;21.416;2023-08-06T04:58:06;11.10;;;10.10;;
35306;SDS011;21420;52.196;21.416;2023-08-06T05:00:33;10.40;;;9.40;;
35306;SDS011;21420;52.196;21.416;2023-08-06T05:03:00;12.80;;;10.20;;
35306;SDS011;21420;52.196;21.416;2023-08-06T05:05:28;11.60;;;10.40;;
35306;SDS011;21420;52.196;21.416;2023-08-06T05:07:56;10.60;;;9.70;;
35306;SDS011;21420;52.196;21.416;2023-08-06T05:10:24;10.70;;;8.90;;
35306;SDS011;21420;52.196;21.416;2023-08-06T05:12:52;10.40;;;9.40;;
35306;SDS011;21420;52.196;21.416;2023-08-06T05:15:19;13.50;;;9.90;;
35306;SDS011;21420;52.196;21.416;2023-08-06T05:17:46;10.10;;;9.10;;
35306;SDS011;21420;52.196;21.416;2023-08-06T05:20:13;10.60;;;9.60;;
35306;SDS011;21420;52.196;21.416;2023-08-06T05:22:39;11.10;;;9.90;;
35306;SDS011;21420;52.196;21.416;2023-08-06T05:25:06;9.90;;;9.00;;
35306;SDS011;21420;52.196;21.416;2023-08-06T05:27:33;14.50;;;9.30;;
35306;SDS011;21420;52.196;21.416;2023-08-06T05:30:00;10.30;;;9.40;;
35306;SDS011;21420;52.196;21.416;2023-08-06T05:32:26;9.40;;;8.50;;
35306;SDS011;21420;52.196;21.416;2023-08-06T05:34:53;11.90;;;9.50;;
35306;SDS011;21420;52.196;21.416;2023-08-06T05:37:20;10.00;;;9.10;;
35306;SDS011;21420;52.196;21.416;2023-08-06T05:39:46;12.70;;;8.50;;
35306;SDS011;21420;52.196;21.416;2023-08-06T05:42:13;11.70;;;9.40;;
35306;SDS011;21420;52.196;21.416;2023-08-06T05:44:40;9.30;;;8.20;;
35306;SDS011;21420;52.196;21.416;2023-08-06T05:47:06;12.30;;;9.20;;
35306;SDS011;21420;52.196;21.416;2023-08-06T05:49:33;12.70;;;10.00;;
35306;SDS011;21420;52.196;21.416;2023-08-06T05:52:00;11.10;;;9.90;;
35306;SDS011;21420;52.196;21.416;2023-08-06T05:54:26;11.30;;;9.20;;
35306;SDS011;21420;52.196;21.416;2023-08-06T05:56:53;9.50;;;8.00;;
35306;SDS011;21420;52.196;21.416;2023-08-06T05:59:19;9.70;;;8.60;;
35306;SDS011;21420;52.196;21.416;2023-08-06T06:01:46;9.80;;;8.10;;
35306;SDS011;21420;52.196;21.416;2023-08-06T06:04:13;9.30;;;8.10;;
35306;SDS011;21420;52.196;21.416;2023-08-06T06:06:40;9.70;;;8.70;;
35306;SDS011;21420;52.196;21.416;2023-08-06T06:09:08;10.90;;;9.40;;
35306;SDS011;21420;52.196;21.416;2023-08-06T06:11:34;11.40;;;9.50;;
35306;SDS011;21420;52.196;21.416;2023-08-06T06:14:01;14.50;;;9.10;;
35306;SDS011;21420;52.196;21.416;2023-08-06T06:16:28;10.20;;;9.10;;
35306;SDS011;21420;52.196;21.416;2023-08-06T06:18:55;8.80;;;8.00;;
35306;SDS011;21420;52.196;21.416;2023-08-06T06:21:23;10.50;;;9.10;;
35306;SDS011;21420;52.196;21.416;2023-08-06T06:23:50;9.40;;;8.50;;
35306;SDS011;21420;52.196;21.416;2023-08-06T06:26:18;11.40;;;8.90;;
35306;SDS011;21420;52.196;21.416;2023-08-06T06:28:45;12.30;;;9.00;;
35306;SDS011;21420;52.196;21.416;2023-08-06T06:31:11;11.40;;;8.50;;
35306;SDS011;21420;52.196;21.416;2023-08-06T06:33:38;9.10;;;8.10;;
35306;SDS011;21420;52.196;21.416;2023-08-06T06:36:05;12.40;;;8.20;;
35306;SDS011;21420;52.196;21.416;2023-08-06T06:38:34;9.60;;;7.80;;
35306;SDS011;21420;52.196;21.416;2023-08-06T06:41:00;9.70;;;8.70;;
35306;SDS011;21420;52.196;21.416;2023-08-06T06:43:29;11.40;;;9.10;;
35306;SDS011;21420;52.196;21.416;2023-08-06T06:45:56;11.10;;;8.40;;
35306;SDS011;21420;52.196;21.416;2023-08-06T06:48:28;12.70;;;8.70;;
35306;SDS011;21420;52.196;21.416;2023-08-06T06:50:58;11.60;;;8.60;;
35306;SDS011;21420;52.196;21.416;2023-08-06T06:53:25;12.40;;;8.60;;
35306;SDS011;21420;52.196;21.416;2023-08-06T06:55:55;10.40;;;8.80;;
35306;SDS011;21420;52.196;21.416;2023-08-06T06:58:23;9.30;;;7.90;;
35306;SDS011;21420;52.196;21.416;2023-08-06T07:00:49;9.00;;;8.10;;
35306;SDS011;21420;52.196;21.416;2023-08-06T07:03:16;12.90;;;8.00;;
35306;SDS011;21420;52.196;21.416;2023-08-06T07:05:44;13.70;;;8.40;;
35306;SDS011;21420;52.196;21.416;2023-08-06T07:08:11;8.80;;;7.10;;
35306;SDS011;21420;52.196;21.416;2023-08-06T07:10:38;9.80;;;7.20;;
35306;SDS011;21420;52.196;21.416;2023-08-06T07:13:09;9.10;;;7.70;;
35306;SDS011;21420;52.196;21.416;2023-08-06T07:15:36;10.20;;;7.90;;
35306;SDS011;21420;52.196;21.416;2023-08-06T07:18:03;7.50;;;6.40;;
35306;SDS011;21420;52.196;21.416;2023-08-06T07:20:29;10.30;;;6.90;;
35306;SDS011;21420;52.196;21.416;2023-08-06T07:22:58;10.00;;;6.60;;
35306;SDS011;21420;52.196;21.416;2023-08-06T07:25:25;9.90;;;6.40;;
35306;SDS011;21420;52.196;21.416;2023-08-06T07:27:52;8.00;;;6.90;;
35306;SDS011;21420;52.196;21.416;2023-08-06T07:30:19;7.70;;;6.40;;
35306;SDS011;21420;52.196;21.416;2023-08-06T07:32:45;10.40;;;6.70;;
35306;SDS011;21420;52.196;21.416;2023-08-06T07:35:12;12.20;;;6.40;;
35306;SDS011;21420;52.196;21.416;2023-08-06T07:37:41;10.90;;;6.30;;
35306;SDS011;21420;52.196;21.416;2023-08-06T07:40:08;6.40;;;5.80;;
35306;SDS011;21420;52.196;21.416;2023-08-06T07:42:35;8.40;;;6.40;;
35306;SDS011;21420;52.196;21.416;2023-08-06T07:45:02;11.50;;;6.40;;
35306;SDS011;21420;52.196;21.416;2023-08-06T07:47:29;6.90;;;5.70;;
35306;SDS011;21420;52.196;21.416;2023-08-06T07:49:56;7.60;;;5.50;;
35306;SDS011;21420;52.196;21.416;2023-08-06T07:52:22;9.80;;;6.30;;
35306;SDS011;21420;52.196;21.416;2023-08-06T07:54:49;7.40;;;6.60;;
35306;SDS011;21420;52.196;21.416;2023-08-06T07:57:16;6.90;;;6.20;;
35306;SDS011;21420;52.196;21.416;2023-08-06T07:59:43;9.50;;;6.20;;
35306;SDS011;21420;52.196;21.416;2023-08-06T08:02:09;10.50;;;5.60;;
35306;SDS011;21420;52.196;21.416;2023-08-06T08:04:36;7.80;;;6.50;;
35306;SDS011;21420;52.196;21.416;2023-08-06T08:07:03;9.10;;;6.30;;
35306;SDS011;21420;52.196;21.416;2023-08-06T08:09:30;9.90;;;6.50;;
35306;SDS011;21420;52.196;21.416;2023-08-06T08:11:56;7.20;;;5.40;;
35306;SDS011;21420;52.196;21.416;2023-08-06T08:14:26;6.10;;;5.50;;
35306;SDS011;21420;52.196;21.416;2023-08-06T08:16:53;11.20;;;5.70;;
35306;SDS011;21420;52.196;21.416;2023-08-06T08:19:20;7.80;;;6.00;;
35306;SDS011;21420;52.196;21.416;2023-08-06T08:21:47;7.00;;;6.10;;
35306;SDS011;21420;52.196;21.416;2023-08-06T08:24:14;15.20;;;5.30;;
35306;SDS011;21420;52.196;21.416;2023-08-06T08:26:41;6.90;;;5.90;;
35306;SDS011;21420;52.196;21.416;2023-08-06T08:29:07;5.90;;;5.20;;
35306;SDS011;21420;52.196;21.416;2023-08-06T08:31:34;11.50;;;5.10;;
35306;SDS011;21420;52.196;21.416;2023-08-06T08:34:05;11.50;;;5.60;;
35306;SDS011;21420;52.196;21.416;2023-08-06T08:36:32;6.00;;;5.40;;
35306;SDS011;21420;52.196;21.416;2023-08-06T08:38:59;9.70;;;5.40;;
35306;SDS011;21420;52.196;21.416;2023-08-06T08:41:28;6.40;;;5.40;;
35306;SDS011;21420;52.196;21.416;2023-08-06T08:43:56;6.00;;;5.40;;
35306;SDS011;21420;52.196;21.416;2023-08-06T08:46:26;10.60;;;5.70;;
35306;SDS011;21420;52.196;21.416;2023-08-06T08:48:58;12.00;;;5.60;;
35306;SDS011;21420;52.196;21.416;2023-08-06T08:51:27;7.60;;;5.90;;
35306;SDS011;21420;52.196;21.416;2023-08-06T08:53:54;9.20;;;5.50;;
35306;SDS011;21420;52.196;21.416;2023-08-06T08:56:26;7.00;;;5.50;;
35306;SDS011;21420;52.196;21.416;2023-08-06T08:58:53;7.70;;;5.40;;
35306;SDS011;21420;52.196;21.416;2023-08-06T09:01:21;7.90;;;4.80;;
35306;SDS011;21420;52.196;21.416;2023-08-06T09:03:49;7.30;;;5.10;;
35306;SDS011;21420;52.196;21.416;2023-08-06T09:06:16;5.70;;;5.00;;
35306;SDS011;21420;52.196;21.416;2023-08-06T09:08:47;6.30;;;5.60;;
35306;SDS011;21420;52.196;21.416;2023-08-06T09:11:22;6.90;;;5.50;;
35306;SDS011;21420;52.196;21.416;2023-08-06T09:13:49;5.80;;;5.30;;
35306;SDS011;21420;52.196;21.416;2023-08-06T09:16:16;5.80;;;4.40;;
35306;SDS011;21420;52.196;21.416;2023-08-06T09:18:43;9.30;;;5.10;;
35306;SDS011;21420;52.196;21.416;2023-08-06T09:21:14;6.40;;;5.30;;
35306;SDS011;21420;52.196;21.416;2023-08-06T09:23:42;6.00;;;5.40;;
35306;SDS011;21420;52.196;21.416;2023-08-06T09:26:11;6.40;;;5.30;;
35306;SDS011;21420;52.196;21.416;2023-08-06T09:28:42;5.90;;;5.10;;
35306;SDS011;21420;52.196;21.416;2023-08-06T09:31:10;6.40;;;5.10;;
35306;SDS011;21420;52.196;21.416;2023-08-06T09:33:37;6.70;;;5.60;;
35306;SDS011;21420;52.196;21.416;2023-08-06T09:36:09;6.20;;;5.70;;
35306;SDS011;21420;52.196;21.416;2023-08-06T09:38:37;9.30;;;6.00;;
35306;SDS011;21420;52.196;21.416;2023-08-06T09:41:07;7.20;;;5.40;;
35306;SDS011;21420;52.196;21.416;2023-08-06T09:43:41;6.10;;;5.00;;
35306;SDS011;21420;52.196;21.416;2023-08-06T09:46:12;10.50;;;5.30;;
35306;SDS011;21420;52.196;21.416;2023-08-06T09:48:40;7.00;;;5.60;;
35306;SDS011;21420;52.196;21.416;2023-08-06T09:51:10;10.70;;;5.00;;
35306;SDS011;21420;52.196;21.416;2023-08-06T09:53:39;8.20;;;5.70;;
35306;SDS011;21420;52.196;21.416;2023-08-06T09:56:07;5.70;;;4.80;;
35306;SDS011;21420;52.196;21.416;2023-08-06T09:58:36;7.10;;;4.70;;
35306;SDS011;21420;52.196;21.416;2023-08-06T10:01:03;6.70;;;4.90;;
35306;SDS011;21420;52.196;21.416;2023-08-06T10:03:30;9.00;;;5.20;;
35306;SDS011;21420;52.196;21.416;2023-08-06T10:06:00;6.20;;;4.80;;
35306;SDS011;21420;52.196;21.416;2023-08-06T10:08:29;5.00;;;4.50;;
35306;SDS011;21420;52.196;21.416;2023-08-06T10:10:56;6.50;;;4.70;;
35306;SDS011;21420;52.196;21.416;2023-08-06T10:13:24;7.50;;;5.10;;
35306;SDS011;21420;52.196;21.416;2023-08-06T10:15:54;5.90;;;4.80;;
35306;SDS011;21420;52.196;21.416;2023-08-06T10:18:21;9.90;;;4.70;;
35306;SDS011;21420;52.196;21.416;2023-08-06T10:20:49;6.60;;;4.80;;
35306;SDS011;21420;52.196;21.416;2023-08-06T10:23:15;7.30;;;4.20;;
35306;SDS011;21420;52.196;21.416;2023-08-06T10:25:43;4.90;;;4.40;;
35306;SDS011;21420;52.196;21.416;2023-08-06T10:28:19;10.60;;;4.00;;
35306;SDS011;21420;52.196;21.416;2023-08-06T10:30:47;6.10;;;4.30;;
35306;SDS011;21420;52.196;21.416;2023-08-06T10:33:14;4.90;;;4.50;;
35306;SDS011;21420;52.196;21.416;2023-08-06T10:38:19;5.00;;;3.80;;
35306;SDS011;21420;52.196;21.416;2023-08-06T10:43:29;7.10;;;4.40;;
35306;SDS011;21420;52.196;21.416;2023-08-06T10:51:09;6.10;;;3.70;;
35306;SDS011;21420;52.196;21.416;2023-08-06T10:53:44;5.60;;;4.00;;
35306;SDS011;21420;52.196;21.416;2023-08-06T10:56:22;6.90;;;4.10;;
35306;SDS011;21420;52.196;21.416;2023-08-06T10:58:54;8.40;;;4.70;;
35306;SDS011;21420;52.196;21.416;2023-08-06T11:01:26;10.00;;;3.80;;
35306;SDS011;21420;52.196;21.416;2023-08-06T11:03:55;5.10;;;3.60;;
35306;SDS011;21420;52.196;21.416;2023-08-06T11:06:23;4.80;;;3.80;;
35306;SDS011;21420;52.196;21.416;2023-08-06T11:08:54;6.50;;;4.00;;
35306;SDS011;21420;52.196;21.416;2023-08-06T11:11:22;4.90;;;3.70;;
35306;SDS011;21420;52.196;21.416;2023-08-06T11:13:50;4.00;;;3.60;;
35306;SDS011;21420;52.196;21.416;2023-08-06T11:16:18;6.60;;;4.20;;
35306;SDS011;21420;52.196;21.416;2023-08-06T11:18:48;4.40;;;4.00;;
35306;SDS011;21420;52.196;21.416;2023-08-06T11:21:18;5.70;;;4.00;;
35306;SDS011;21420;52.196;21.416;2023-08-06T11:23:45;7.30;;;4.10;;
35306;SDS011;21420;52.196;21.416;2023-08-06T11:26:12;6.80;;;4.80;;
35306;SDS011;21420;52.196;21.416;2023-08-06T11:28:42;7.70;;;4.20;;
35306;SDS011;21420;52.196;21.416;2023-08-06T11:31:18;4.20;;;3.80;;
35306;SDS011;21420;52.196;21.416;2023-08-06T11:33:45;4.50;;;4.10;;
35306;SDS011;21420;52.196;21.416;2023-08-06T11:36:12;5.00;;;3.60;;
35306;SDS011;21420;52.196;21.416;2023-08-06T11:38:39;4.30;;;3.90;;
35306;SDS011;21420;52.196;21.416;2023-08-06T11:41:06;4.40;;;4.00;;
35306;SDS011;21420;52.196;21.416;2023-08-06T11:43:33;7.00;;;3.80;;
35306;SDS011;21420;52.196;21.416;2023-08-06T11:46:00;9.40;;;4.50;;
35306;SDS011;21420;52.196;21.416;2023-08-06T11:48:26;7.20;;;4.20;;
35306;SDS011;21420;52.196;21.416;2023-08-06T11:50:56;5.30;;;4.20;;
35306;SDS011;21420;52.196;21.416;2023-08-06T11:53:26;4.30;;;3.90;;
35306;SDS011;21420;52.196;21.416;2023-08-06T11:55:54;5.70;;;3.80;;
35306;SDS011;21420;52.196;21.416;2023-08-06T11:58:20;5.90;;;4.30;;
35306;SDS011;21420;52.196;21.416;2023-08-06T12:00:47;4.30;;;3.90;;
35306;SDS011;21420;52.196;21.416;2023-08-06T12:03:15;5.10;;;4.00;;
35306;SDS011;21420;52.196;21.416;2023-08-06T12:05:45;4.60;;;4.20;;
35306;SDS011;21420;52.196;21.416;2023-08-06T12:08:13;7.30;;;4.30;;
35306;SDS011;21420;52.196;21.416;2023-08-06T12:10:40;5.10;;;4.20;;
35306;SDS011;21420;52.196;21.416;2023-08-06T12:13:07;7.70;;;4.50;;
35306;SDS011;21420;52.196;21.416;2023-08-06T12:15:33;5.30;;;4.10;;
35306;SDS011;21420;52.196;21.416;2023-08-06T12:18:00;7.50;;;5.00;;
35306;SDS011;21420;52.196;21.416;2023-08-06T12:20:27;8.20;;;4.40;;
35306;SDS011;21420;52.196;21.416;2023-08-06T12:22:54;5.50;;;4.90;;
35306;SDS011;21420;52.196;21.416;2023-08-06T12:25:21;5.80;;;5.10;;
35306;SDS011;21420;52.196;21.416;2023-08-06T12:27:49;6.90;;;4.80;;
35306;SDS011;21420;52.196;21.416;2023-08-06T12:30:16;8.20;;;5.20;;
35306;SDS011;21420;52.196;21.416;2023-08-06T12:32:43;5.60;;;5.00;;
35306;SDS011;21420;52.196;21.416;2023-08-06T12:35:10;7.60;;;5.00;;
35306;SDS011;21420;52.196;21.416;2023-08-06T12:37:36;8.30;;;5.60;;
35306;SDS011;21420;52.196;21.416;2023-08-06T12:40:05;6.40;;;5.60;;
35306;SDS011;21420;52.196;21.416;2023-08-06T12:42:52;9.40;;;5.30;;
35306;SDS011;21420;52.196;21.416;2023-08-06T12:45:19;8.00;;;5.50;;
35306;SDS011;21420;52.196;21.416;2023-08-06T12:47:48;7.90;;;5.80;;
35306;SDS011;21420;52.196;21.416;2023-08-06T12:50:16;6.40;;;5.80;;
35306;SDS011;21420;52.196;21.416;2023-08-06T12:52:44;8.20;;;5.90;;
35306;SDS011;21420;52.196;21.416;2023-08-06T12:55:11;6.20;;;5.20;;
35306;SDS011;21420;52.196;21.416;2023-08-06T12:57:37;6.00;;;5.50;;
35306;SDS011;21420;52.196;21.416;2023-08-06T13:00:22;6.40;;;5.80;;
35306;SDS011;21420;52.196;21.416;2023-08-06T13:02:49;6.10;;;5.50;;
35306;SDS011;21420;52.196;21.416;2023-08-06T13:05:16;6.50;;;5.80;;
35306;SDS011;21420;52.196;21.416;2023-08-06T13:07:42;8.70;;;5.50;;
35306;SDS011;21420;52.196;21.416;2023-08-06T13:10:09;6.10;;;5.60;;
35306;SDS011;21420;52.196;21.416;2023-08-06T13:12:36;6.70;;;5.10;;
35306;SDS011;21420;52.196;21.416;2023-08-06T13:15:02;10.80;;;5.70;;
35306;SDS011;21420;52.196;21.416;2023-08-06T13:17:29;5.80;;;4.90;;
35306;SDS011;21420;52.196;21.416;2023-08-06T13:19:56;8.60;;;5.80;;
35306;SDS011;21420;52.196;21.416;2023-08-06T13:22:24;10.90;;;5.80;;
35306;SDS011;21420;52.196;21.416;2023-08-06T13:24:50;8.30;;;5.80;;
35306;SDS011;21420;52.196;21.416;2023-08-06T13:27:17;7.60;;;6.00;;
35306;SDS011;21420;52.196;21.416;2023-08-06T13:29:44;6.20;;;5.60;;
35306;SDS011;21420;52.196;21.416;2023-08-06T13:32:10;8.60;;;4.90;;
35306;SDS011;21420;52.196;21.416;2023-08-06T13:34:37;6.90;;;4.90;;
35306;SDS011;21420;52.196;21.416;2023-08-06T13:37:03;6.80;;;4.80;;
35306;SDS011;21420;52.196;21.416;2023-08-06T13:39:30;6.90;;;4.80;;
35306;SDS011;21420;52.196;21.416;2023-08-06T13:41:57;6.30;;;4.20;;
35306;SDS011;21420;52.196;21.416;2023-08-06T13:44:23;4.20;;;3.80;;
35306;SDS011;21420;52.196;21.416;2023-08-06T13:46:50;4.10;;;3.80;;
35306;SDS011;21420;52.196;21.416;2023-08-06T13:49:17;3.50;;;3.20;;
35306;SDS011;21420;52.196;21.416;2023-08-06T13:51:43;6.70;;;3.90;;
35306;SDS011;21420;52.196;21.416;2023-08-06T13:54:10;4.20;;;3.80;;
35306;SDS011;21420;52.196;21.416;2023-08-06T13:56:37;6.10;;;3.90;;
35306;SDS011;21420;52.196;21.416;2023-08-06T13:59:04;4.60;;;3.60;;
35306;SDS011;21420;52.196;21.416;2023-08-06T14:01:31;4.70;;;3.90;;
35306;SDS011;21420;52.196;21.416;2023-08-06T14:04:15;4.10;;;3.80;;
35306;SDS011;21420;52.196;21.416;2023-08-06T14:06:41;4.00;;;3.60;;
35306;SDS011;21420;52.196;21.416;2023-08-06T14:09:08;4.50;;;4.10;;
35306;SDS011;21420;52.196;21.416;2023-08-06T14:11:35;5.80;;;4.00;;
35306;SDS011;21420;52.196;21.416;2023-08-06T14:14:01;7.00;;;4.70;;
35306;SDS011;21420;52.196;21.416;2023-08-06T14:16:29;7.00;;;4.90;;
35306;SDS011;21420;52.196;21.416;2023-08-06T14:18:56;5.00;;;4.60;;
35306;SDS011;21420;52.196;21.416;2023-08-06T14:21:23;6.90;;;4.90;;
35306;SDS011;21420;52.196;21.416;2023-08-06T14:23:49;5.20;;;4.70;;
35306;SDS011;21420;52.196;21.416;2023-08-06T14:26:16;5.00;;;4.70;;
35306;SDS011;21420;52.196;21.416;2023-08-06T14:28:43;5.10;;;4.40;;
35306;SDS011;21420;52.196;21.416;2023-08-06T14:31:11;4.90;;;4.60;;
35306;SDS011;21420;52.196;21.416;2023-08-06T14:33:38;5.20;;;4.80;;
35306;SDS011;21420;52.196;21.416;2023-08-06T14:36:04;5.20;;;4.60;;
35306;SDS011;21420;52.196;21.416;2023-08-06T14:38:32;5.90;;;5.40;;
35306;SDS011;21420;52.196;21.416;2023-08-06T14:41:06;6.50;;;5.10;;
35306;SDS011;21420;52.196;21.416;2023-08-06T14:43:33;5.80;;;5.00;;
35306;SDS011;21420;52.196;21.416;2023-08-06T14:45:59;6.80;;;5.20;;
35306;SDS011;21420;52.196;21.416;2023-08-06T14:48:26;5.90;;;5.40;;
35306;SDS011;21420;52.196;21.416;2023-08-06T14:50:53;5.70;;;5.20;;
35306;SDS011;21420;52.196;21.416;2023-08-06T14:53:21;5.80;;;5.30;;
35306;SDS011;21420;52.196;21.416;2023-08-06T14:55:48;5.70;;;4.60;;
35306;SDS011;21420;52.196;21.416;2023-08-06T14:58:14;6.00;;;4.80;;